Time;durP1;ratioP1;P1;durP2;ratioP2;P2;SDS_P1;SDS_P2;PMS_P1;PMS_P2;Temp;Humidity;BMP_temperature;BMP_pressure;BME280_temperature;BME280_humidity;BME280_pressure;Samples;Min_cycle;Max_cycle;Signal;HPM_P1;HPM_P2
2021/06/30 00:00:15;;;;;;;22.77;20.73;;;19.40;99.90;;;;;;5026040;28;20258;-62
2021/06/30 00:02:48;;;;;;;22.47;20.43;;;19.40;99.90;;;;;;5027857;28;20239;-61
2021/06/30 00:05:22;;;;;;;22.60;20.60;;;19.50;99.90;;;;;;5027262;28;20599;-61
2021/06/30 00:07:56;;;;;;;23.60;21.40;;;19.40;99.90;;;;;;5027894;28;20254;-61
2021/06/30 00:10:30;;;;;;;22.50;20.50;;;19.50;99.90;;;;;;5033796;28;20233;-61
2021/06/30 00:13:05;;;;;;;22.20;20.27;;;19.50;99.90;;;;;;5029767;28;20242;-61
2021/06/30 00:15:42;;;;;;;23.80;21.30;;;19.50;99.90;;;;;;5027707;28;20234;-62
2021/06/30 00:18:17;;;;;;;24.43;22.03;;;19.50;99.90;;;;;;5027854;28;20242;-61
2021/06/30 00:20:51;;;;;;;23.83;21.80;;;19.50;99.90;;;;;;5041944;28;20622;-62
2021/06/30 00:23:25;;;;;;;23.80;21.80;;;19.50;99.90;;;;;;5027282;28;20251;-62
2021/06/30 00:26:00;;;;;;;23.47;21.43;;;19.50;99.90;;;;;;5026749;28;20654;-62
2021/06/30 00:28:30;;;;;;;23.63;21.53;;;19.50;99.90;;;;;;5026882;28;20255;-61
2021/06/30 00:31:05;;;;;;;25.10;22.60;;;19.50;99.90;;;;;;5025273;28;20235;-63
2021/06/30 00:33:39;;;;;;;22.30;20.40;;;19.50;99.90;;;;;;5026820;28;20231;-62
2021/06/30 00:36:14;;;;;;;22.60;20.50;;;19.50;99.90;;;;;;5026523;28;20643;-61
2021/06/30 00:38:48;;;;;;;23.63;21.50;;;19.50;99.90;;;;;;5026263;28;20254;-63
2021/06/30 00:41:22;;;;;;;24.30;22.00;;;19.50;99.90;;;;;;5025063;28;20709;-62
2021/06/30 00:43:57;;;;;;;22.20;20.13;;;19.50;99.90;;;;;;5026358;28;20239;-62
2021/06/30 00:46:35;;;;;;;22.87;20.83;;;19.50;99.90;;;;;;5041212;28;20652;-63
2021/06/30 00:49:10;;;;;;;24.60;22.33;;;19.50;99.90;;;;;;5045960;28;20227;-63
2021/06/30 00:51:45;;;;;;;25.97;23.47;;;19.50;99.90;;;;;;5045396;28;20238;-63
2021/06/30 00:54:20;;;;;;;27.53;25.03;;;19.50;99.90;;;;;;5031551;28;20713;-62
2021/06/30 00:56:54;;;;;;;27.30;24.27;;;19.50;99.90;;;;;;5026156;28;20238;-61
2021/06/30 00:59:29;;;;;;;27.53;24.93;;;19.50;99.90;;;;;;5025795;28;20237;-63
2021/06/30 01:02:05;;;;;;;29.73;26.93;;;19.50;99.90;;;;;;5045005;28;20353;-62
2021/06/30 01:04:40;;;;;;;30.53;27.03;;;19.40;99.90;;;;;;5028823;28;20239;-62
2021/06/30 01:07:14;;;;;;;29.87;27.17;;;19.40;99.90;;;;;;5045992;28;20232;-62
2021/06/30 01:09:48;;;;;;;30.40;27.40;;;19.40;99.90;;;;;;5044171;28;20241;-61
2021/06/30 01:12:23;;;;;;;27.93;25.20;;;19.40;99.90;;;;;;5025385;28;20238;-62
2021/06/30 01:14:57;;;;;;;28.70;25.93;;;19.40;99.90;;;;;;5028533;28;20262;-62
2021/06/30 01:17:33;;;;;;;32.23;29.13;;;19.30;99.90;;;;;;5049009;28;20231;-61
2021/06/30 01:20:08;;;;;;;31.50;28.40;;;19.30;99.90;;;;;;5050195;28;20230;-62
2021/06/30 01:23:04;;;;;;;30.47;27.57;;;19.30;99.90;;;;;;5045920;28;20602;-61
2021/06/30 01:25:38;;;;;;;32.87;29.57;;;19.30;99.90;;;;;;5027287;28;20698;-61
2021/06/30 01:28:15;;;;;;;30.77;27.67;;;19.40;99.90;;;;;;5045112;28;20232;-62
2021/06/30 01:30:51;;;;;;;34.70;31.03;;;19.40;99.90;;;;;;5029491;28;20661;-63
2021/06/30 01:33:25;;;;;;;33.40;29.93;;;19.40;99.90;;;;;;5022823;28;20245;-62
2021/06/30 01:36:00;;;;;;;31.63;28.57;;;19.40;99.90;;;;;;5040744;28;20237;-61
2021/06/30 01:38:36;;;;;;;34.50;31.03;;;19.40;99.90;;;;;;5030653;28;20241;-63
2021/06/30 01:41:14;;;;;;;31.83;28.63;;;19.40;99.90;;;;;;5029216;28;20569;-62
2021/06/30 01:43:49;;;;;;;32.30;29.30;;;19.40;99.90;;;;;;5030875;28;20594;-62
2021/06/30 01:46:24;;;;;;;33.27;30.00;;;19.40;99.90;;;;;;5044878;28;20325;-61
2021/06/30 01:48:59;;;;;;;33.27;29.87;;;19.40;99.90;;;;;;5049744;28;20250;-62
2021/06/30 01:51:34;;;;;;;32.53;29.33;;;19.40;99.90;;;;;;5025499;28;20311;-62
2021/06/30 01:54:13;;;;;;;34.77;31.30;;;19.40;99.90;;;;;;5030334;28;20235;-63
2021/06/30 01:56:50;;;;;;;35.87;32.13;;;19.40;99.90;;;;;;5030006;28;20249;-63
2021/06/30 01:59:24;;;;;;;32.80;29.53;;;19.30;99.90;;;;;;5030567;28;20274;-61
2021/06/30 02:01:52;;;;;;;32.87;29.57;;;19.20;99.90;;;;;;5048100;28;20242;-62
2021/06/30 02:04:26;;;;;;;38.30;34.30;;;19.20;99.90;;;;;;5050582;28;20243;-62
2021/06/30 02:06:59;;;;;;;38.33;34.23;;;19.20;99.90;;;;;;5044790;28;20258;-62
2021/06/30 02:09:34;;;;;;;38.87;34.67;;;19.30;99.90;;;;;;5030254;28;20362;-62
2021/06/30 02:12:07;;;;;;;34.50;31.10;;;19.20;99.90;;;;;;5009615;28;20506;-63
2021/06/30 02:14:40;;;;;;;36.40;32.47;;;19.20;99.90;;;;;;5010819;28;20697;-63
2021/06/30 02:17:17;;;;;;;41.07;36.70;;;19.20;99.90;;;;;;5044597;28;20258;-61
2021/06/30 02:19:51;;;;;;;40.57;36.33;;;19.20;99.90;;;;;;5034876;28;20292;-63
2021/06/30 02:22:24;;;;;;;40.47;36.27;;;19.20;99.90;;;;;;5029530;28;20316;-62
2021/06/30 02:24:58;;;;;;;38.90;34.80;;;19.10;99.90;;;;;;5029641;28;20242;-63
2021/06/30 02:27:31;;;;;;;37.07;33.30;;;19.10;99.90;;;;;;5029591;28;20232;-61
2021/06/30 02:30:08;;;;;;;36.80;32.93;;;19.10;99.90;;;;;;5028641;28;20429;-62
2021/06/30 02:32:42;;;;;;;42.40;37.80;;;19.10;99.90;;;;;;5029671;28;20598;-62
2021/06/30 02:35:17;;;;;;;42.63;38.03;;;19.10;99.90;;;;;;5032638;28;20288;-61
2021/06/30 02:37:52;;;;;;;38.97;34.97;;;19.10;99.90;;;;;;5029547;28;20281;-62
2021/06/30 02:40:28;;;;;;;39.70;35.27;;;19.10;99.90;;;;;;5035402;28;20237;-63
2021/06/30 02:43:04;;;;;;;41.13;36.77;;;19.20;99.90;;;;;;5049389;28;20273;-63
2021/06/30 02:45:38;;;;;;;38.43;34.33;;;19.20;99.90;;;;;;5040999;28;20265;-62
2021/06/30 02:48:11;;;;;;;41.53;37.00;;;19.10;99.90;;;;;;5029289;28;20881;-61
2021/06/30 02:50:44;;;;;;;40.47;36.07;;;19.10;99.90;;;;;;5028445;28;20236;-62
2021/06/30 02:53:17;;;;;;;43.57;38.97;;;19.10;99.90;;;;;;5029472;28;20726;-62
2021/06/30 02:55:51;;;;;;;44.90;39.23;;;19.10;99.90;;;;;;5038899;28;20360;-61
2021/06/30 02:58:25;;;;;;;42.97;38.43;;;19.00;99.90;;;;;;5051026;28;20284;-62
2021/06/30 03:00:58;;;;;;;42.40;37.73;;;19.00;99.90;;;;;;5038811;28;20575;-63
2021/06/30 03:03:31;;;;;;;44.60;39.90;;;19.00;99.90;;;;;;5049146;28;20586;-62
2021/06/30 03:06:04;;;;;;;42.87;37.93;;;19.00;99.90;;;;;;5048938;28;20231;-61
2021/06/30 03:08:37;;;;;;;44.57;39.77;;;19.00;99.90;;;;;;5048775;28;20246;-62
2021/06/30 03:11:11;;;;;;;46.37;40.63;;;19.00;99.90;;;;;;5038549;28;20238;-62
2021/06/30 03:13:45;;;;;;;46.23;39.20;;;19.00;99.90;;;;;;5009012;28;20237;-61
2021/06/30 03:16:18;;;;;;;41.57;36.90;;;19.00;99.90;;;;;;5022493;28;20235;-62
2021/06/30 03:18:51;;;;;;;45.30;39.23;;;19.00;99.90;;;;;;5029042;28;20252;-61
2021/06/30 03:21:24;;;;;;;42.43;37.57;;;19.00;99.90;;;;;;5036541;28;20234;-62
2021/06/30 03:23:57;;;;;;;40.33;36.03;;;19.00;99.90;;;;;;5048402;28;20268;-62
2021/06/30 03:26:32;;;;;;;41.43;37.13;;;19.00;99.90;;;;;;5032620;28;20265;-63
2021/06/30 03:29:05;;;;;;;39.80;34.37;;;19.00;99.90;;;;;;5008826;28;20231;-61
2021/06/30 03:31:38;;;;;;;37.77;33.70;;;19.00;99.90;;;;;;5039946;28;20284;-61
2021/06/30 03:34:11;;;;;;;37.60;33.53;;;19.10;99.90;;;;;;5048405;28;20288;-61
2021/06/30 03:36:44;;;;;;;36.97;33.10;;;19.10;99.90;;;;;;5030407;28;21081;-62
2021/06/30 03:39:17;;;;;;;36.67;32.87;;;19.10;99.90;;;;;;5028250;28;20242;-62
2021/06/30 03:41:51;;;;;;;36.33;32.53;;;19.00;99.90;;;;;;5044346;28;20718;-61
2021/06/30 03:44:25;;;;;;;32.40;29.03;;;19.00;99.90;;;;;;5047576;28;20263;-62
2021/06/30 03:46:58;;;;;;;32.53;29.03;;;19.10;99.90;;;;;;5026912;28;20243;-61
2021/06/30 03:49:31;;;;;;;33.97;29.27;;;19.10;99.90;;;;;;5027329;28;20230;-62
2021/06/30 03:52:05;;;;;;;32.80;29.30;;;19.20;99.90;;;;;;5007584;28;20266;-61
2021/06/30 03:54:38;;;;;;;30.33;27.13;;;19.20;99.90;;;;;;5008175;28;20560;-61
2021/06/30 03:57:12;;;;;;;33.83;30.17;;;19.20;99.90;;;;;;5008345;28;20707;-63
2021/06/30 03:59:45;;;;;;;28.90;25.93;;;19.20;99.90;;;;;;5008601;28;20331;-63
2021/06/30 04:02:18;;;;;;;33.57;29.90;;;19.20;99.90;;;;;;5027488;28;20269;-62
2021/06/30 04:04:51;;;;;;;32.33;28.40;;;19.20;99.90;;;;;;5029234;28;20253;-62
2021/06/30 04:07:24;;;;;;;29.70;26.50;;;19.30;99.90;;;;;;5036162;28;20267;-61
2021/06/30 04:09:57;;;;;;;32.63;29.13;;;19.30;99.90;;;;;;5024985;28;20242;-62
2021/06/30 04:12:32;;;;;;;31.47;28.27;;;19.40;99.90;;;;;;5027151;28;20239;-62
2021/06/30 04:15:06;;;;;;;32.37;28.90;;;19.40;99.90;;;;;;5027619;28;20237;-62
2021/06/30 04:17:39;;;;;;;29.07;26.07;;;19.50;99.90;;;;;;5027247;28;20243;-62
2021/06/30 04:20:12;;;;;;;29.00;26.00;;;19.50;99.90;;;;;;5032129;28;20239;-62
2021/06/30 04:22:45;;;;;;;27.87;25.07;;;19.70;99.90;;;;;;5027065;28;20836;-62
2021/06/30 04:25:19;;;;;;;28.17;25.43;;;19.70;99.90;;;;;;5032725;28;20238;-62
2021/06/30 04:27:53;;;;;;;28.40;24.97;;;19.80;99.90;;;;;;5031302;28;20258;-63
2021/06/30 04:30:26;;;;;;;28.17;24.53;;;19.90;99.90;;;;;;5026503;28;20239;-62
2021/06/30 04:32:59;;;;;;;26.60;24.00;;;19.90;99.90;;;;;;5027000;28;20250;-62
2021/06/30 04:35:32;;;;;;;26.53;23.67;;;20.00;99.90;;;;;;5034313;28;20234;-62
2021/06/30 04:38:06;;;;;;;25.90;23.17;;;20.00;99.90;;;;;;5047208;28;20234;-62
2021/06/30 04:40:39;;;;;;;24.03;21.63;;;19.90;99.90;;;;;;5045630;28;20242;-62
2021/06/30 04:43:14;;;;;;;27.53;23.70;;;19.90;99.90;;;;;;5047421;28;20304;-62
2021/06/30 04:45:47;;;;;;;25.40;22.90;;;19.90;99.90;;;;;;5042642;28;20251;-62
2021/06/30 04:48:20;;;;;;;24.53;21.93;;;19.90;99.90;;;;;;5047196;28;20272;-63
2021/06/30 04:50:53;;;;;;;24.67;22.13;;;19.90;99.90;;;;;;5035747;28;20239;-63
2021/06/30 04:53:26;;;;;;;23.53;21.00;;;19.90;99.90;;;;;;5033684;28;20240;-62
2021/06/30 04:55:59;;;;;;;25.40;22.80;;;19.90;99.90;;;;;;5033421;28;20235;-62
2021/06/30 04:58:34;;;;;;;25.60;23.03;;;19.90;99.90;;;;;;5033669;28;20236;-62
2021/06/30 05:01:07;;;;;;;24.17;21.57;;;19.80;99.90;;;;;;5032465;28;20595;-61
2021/06/30 05:03:40;;;;;;;22.30;20.10;;;19.80;99.90;;;;;;5033585;28;20246;-61
2021/06/30 05:06:13;;;;;;;24.00;21.60;;;19.80;99.90;;;;;;5032598;28;20312;-62
2021/06/30 05:08:46;;;;;;;22.13;19.73;;;19.80;99.90;;;;;;5033695;28;20254;-62
2021/06/30 05:11:19;;;;;;;24.80;22.20;;;19.80;99.90;;;;;;5032482;28;20628;-62
2021/06/30 05:13:54;;;;;;;25.57;22.23;;;19.80;99.90;;;;;;5033533;28;20625;-62
2021/06/30 05:16:27;;;;;;;25.10;22.03;;;19.80;99.90;;;;;;5048413;28;20264;-62
2021/06/30 05:19:00;;;;;;;23.73;21.33;;;19.80;99.90;;;;;;5053247;28;20238;-62
2021/06/30 05:21:33;;;;;;;24.00;21.50;;;19.80;99.90;;;;;;5040750;28;20235;-63
2021/06/30 05:24:07;;;;;;;23.33;20.73;;;19.80;99.90;;;;;;5033048;28;20337;-62
2021/06/30 05:26:40;;;;;;;23.53;21.03;;;19.80;99.90;;;;;;5033315;28;20234;-62
2021/06/30 05:29:14;;;;;;;22.13;19.77;;;19.80;99.90;;;;;;5031854;28;20231;-62
2021/06/30 05:31:47;;;;;;;23.93;21.53;;;19.80;99.90;;;;;;5045543;28;20241;-62
2021/06/30 05:34:20;;;;;;;24.37;21.13;;;19.70;99.90;;;;;;5035472;28;20235;-62
2021/06/30 05:36:49;;;;;;;25.20;22.23;;;19.70;99.90;;;;;;5031599;28;20638;-63
2021/06/30 05:39:22;;;;;;;26.13;23.13;;;19.70;99.90;;;;;;5033590;28;20703;-62
2021/06/30 05:41:55;;;;;;;26.17;22.30;;;19.70;99.90;;;;;;5051546;28;20536;-62
2021/06/30 05:44:30;;;;;;;23.50;21.17;;;19.70;99.90;;;;;;5053156;28;20239;-62
2021/06/30 05:47:03;;;;;;;23.73;20.23;;;19.70;99.90;;;;;;5033216;28;20239;-62
2021/06/30 05:49:36;;;;;;;22.50;19.87;;;19.80;99.90;;;;;;5031770;28;20238;-62
2021/06/30 05:52:09;;;;;;;22.97;20.50;;;19.80;99.90;;;;;;5012568;28;20240;-62
2021/06/30 05:54:42;;;;;;;24.17;21.57;;;19.80;99.90;;;;;;5014607;28;20240;-62
2021/06/30 05:57:15;;;;;;;27.73;23.20;;;19.70;99.90;;;;;;5053114;28;20231;-63
2021/06/30 05:59:50;;;;;;;24.20;21.70;;;19.80;99.90;;;;;;5043826;28;20235;-64
2021/06/30 06:02:23;;;;;;;24.03;20.97;;;19.70;99.90;;;;;;5032211;28;20230;-63
2021/06/30 06:04:56;;;;;;;24.07;21.57;;;19.80;99.90;;;;;;5028295;28;20624;-62
2021/06/30 06:07:29;;;;;;;25.77;20.47;;;19.80;99.90;;;;;;5028670;28;20297;-62
2021/06/30 06:10:02;;;;;;;23.97;21.43;;;19.80;99.90;;;;;;5028162;28;20235;-64
2021/06/30 06:12:36;;;;;;;26.93;22.93;;;19.90;99.90;;;;;;5027606;28;20769;-63
2021/06/30 06:15:11;;;;;;;24.50;21.90;;;20.00;99.90;;;;;;5042941;28;20240;-62
2021/06/30 06:17:45;;;;;;;26.00;21.77;;;20.10;99.90;;;;;;5029409;28;20239;-63
2021/06/30 06:20:18;;;;;;;25.20;22.47;;;20.20;99.90;;;;;;5029688;28;20572;-63
2021/06/30 06:22:51;;;;;;;29.03;23.70;;;20.20;99.90;;;;;;5044500;28;20248;-63
2021/06/30 06:25:24;;;;;;;28.30;22.90;;;20.20;99.90;;;;;;5031879;28;20228;-64
2021/06/30 06:27:57;;;;;;;23.73;21.10;;;20.30;99.90;;;;;;5043114;28;20294;-62
2021/06/30 06:30:32;;;;;;;25.47;22.00;;;20.30;99.90;;;;;;5027103;28;20298;-63
2021/06/30 06:33:05;;;;;;;24.60;20.93;;;20.30;99.90;;;;;;5028873;28;20342;-62
2021/06/30 06:35:38;;;;;;;26.47;21.77;;;20.40;99.90;;;;;;5036907;28;20286;-64
2021/06/30 06:38:06;;;;;;;23.77;20.40;;;20.40;99.90;;;;;;5045815;28;20235;-63
2021/06/30 06:40:40;;;;;;;23.00;20.53;;;20.40;99.90;;;;;;5027906;28;20274;-63
2021/06/30 06:43:13;;;;;;;22.40;20.00;;;20.50;99.90;;;;;;5029152;28;20256;-62
2021/06/30 06:45:47;;;;;;;23.20;20.70;;;20.40;99.90;;;;;;5029009;28;20309;-62
2021/06/30 06:48:20;;;;;;;23.37;20.87;;;20.40;99.90;;;;;;5027382;28;20234;-63
2021/06/30 06:50:53;;;;;;;25.90;19.53;;;20.30;99.90;;;;;;5027775;28;20595;-62
2021/06/30 06:53:26;;;;;;;22.83;19.03;;;20.30;99.90;;;;;;5029101;28;20286;-62
2021/06/30 06:56:01;;;;;;;20.77;18.67;;;20.30;99.90;;;;;;5023031;28;20241;-64
2021/06/30 06:58:35;;;;;;;21.77;18.73;;;20.30;99.90;;;;;;5025520;28;20249;-62
2021/06/30 07:01:09;;;;;;;21.50;18.47;;;20.30;99.90;;;;;;5028152;28;20712;-63
2021/06/30 07:03:42;;;;;;;22.33;19.00;;;20.20;99.90;;;;;;5028902;28;20667;-63
2021/06/30 07:06:15;;;;;;;20.20;17.43;;;20.10;99.90;;;;;;5038111;28;20643;-62
2021/06/30 07:08:48;;;;;;;18.63;16.73;;;20.20;99.90;;;;;;5028888;28;20233;-63
2021/06/30 07:11:21;;;;;;;19.63;15.70;;;20.40;99.90;;;;;;5052966;28;20230;-62
2021/06/30 07:13:54;;;;;;;20.63;15.80;;;20.40;99.90;;;;;;5028902;28;20232;-64
2021/06/30 07:16:28;;;;;;;19.47;15.17;;;20.40;99.90;;;;;;5033936;28;20240;-65
2021/06/30 07:19:01;;;;;;;17.63;14.90;;;20.50;99.90;;;;;;5028205;28;20246;-62
2021/06/30 07:21:35;;;;;;;18.10;15.33;;;20.50;99.90;;;;;;5026398;28;20244;-64
2021/06/30 07:24:10;;;;;;;20.07;14.73;;;20.50;99.90;;;;;;5028273;28;20227;-63
2021/06/30 07:26:43;;;;;;;18.03;15.77;;;20.50;99.90;;;;;;5044878;28;20287;-62
2021/06/30 07:29:16;;;;;;;23.97;15.90;;;20.40;99.90;;;;;;5028281;28;20243;-64
2021/06/30 07:31:51;;;;;;;18.93;15.50;;;20.30;99.90;;;;;;5030533;28;20244;-63
2021/06/30 07:34:24;;;;;;;17.70;15.00;;;20.30;99.90;;;;;;5028435;28;20235;-63
2021/06/30 07:36:58;;;;;;;18.50;14.63;;;20.30;99.90;;;;;;5044594;28;20584;-62
2021/06/30 07:39:31;;;;;;;18.40;15.20;;;20.30;99.90;;;;;;5027274;28;20235;-64
2021/06/30 07:42:05;;;;;;;17.80;14.97;;;20.30;99.90;;;;;;5037073;28;20232;-62
2021/06/30 07:44:38;;;;;;;17.60;14.33;;;20.40;99.90;;;;;;5025871;28;20298;-62
2021/06/30 07:47:10;;;;;;;17.90;13.90;;;20.30;99.90;;;;;;5022157;28;20244;-63
2021/06/30 07:49:38;;;;;;;13.97;12.57;;;20.40;99.90;;;;;;5026996;28;20250;-63
2021/06/30 07:52:07;;;;;;;16.93;13.23;;;20.50;99.90;;;;;;5025623;28;20227;-63
2021/06/30 07:54:35;;;;;;;14.20;12.47;;;20.50;99.90;;;;;;5026166;28;20244;-64
2021/06/30 07:57:03;;;;;;;16.27;13.17;;;20.50;99.90;;;;;;5030359;28;20227;-64
2021/06/30 07:59:31;;;;;;;14.67;11.57;;;20.50;99.90;;;;;;5027186;28;20259;-63
2021/06/30 08:02:00;;;;;;;15.37;12.43;;;20.60;99.90;;;;;;5026299;28;20239;-63
2021/06/30 08:04:29;;;;;;;14.90;12.80;;;20.70;99.90;;;;;;5027900;28;20254;-64
2021/06/30 08:06:57;;;;;;;15.30;12.23;;;20.80;99.90;;;;;;5027156;28;20236;-65
2021/06/30 08:09:27;;;;;;;13.97;11.83;;;20.90;99.90;;;;;;5027980;28;20668;-65
2021/06/30 08:11:59;;;;;;;15.87;12.60;;;21.00;99.90;;;;;;5037056;28;20249;-63
2021/06/30 08:14:27;;;;;;;15.17;12.40;;;21.00;99.90;;;;;;5028390;28;20726;-62
2021/06/30 08:16:55;;;;;;;15.47;11.37;;;21.10;99.90;;;;;;5046248;28;20268;-63
2021/06/30 08:19:23;;;;;;;18.77;12.63;;;21.10;99.90;;;;;;5036488;28;20275;-63
2021/06/30 08:21:53;;;;;;;14.63;11.97;;;21.00;99.90;;;;;;5026393;28;20311;-64
2021/06/30 08:24:22;;;;;;;14.23;11.87;;;21.00;99.90;;;;;;5027642;28;20258;-63
2021/06/30 08:26:50;;;;;;;13.33;11.40;;;20.90;99.90;;;;;;5026821;28;20232;-63
2021/06/30 08:29:21;;;;;;;18.57;12.80;;;20.80;99.90;;;;;;5026947;28;20243;-63
2021/06/30 08:31:49;;;;;;;15.43;12.03;;;20.70;99.90;;;;;;5025927;28;20240;-62
2021/06/30 08:34:18;;;;;;;12.37;10.63;;;20.60;99.90;;;;;;5027636;28;20243;-64
2021/06/30 08:36:46;;;;;;;13.43;10.60;;;20.60;99.90;;;;;;5023929;28;20236;-64
2021/06/30 08:39:16;;;;;;;15.93;11.47;;;20.50;99.90;;;;;;5024771;28;20258;-63
2021/06/30 08:41:44;;;;;;;14.23;10.60;;;20.60;99.90;;;;;;5023540;28;20927;-63
2021/06/30 08:44:12;;;;;;;18.77;10.60;;;20.60;99.90;;;;;;5024746;28;20342;-64
2021/06/30 08:46:40;;;;;;;11.07;9.57;;;20.70;99.90;;;;;;5040638;28;20603;-64
2021/06/30 08:49:10;;;;;;;11.97;9.97;;;20.70;99.90;;;;;;5044400;28;20242;-64
2021/06/30 08:51:39;;;;;;;10.87;9.47;;;20.80;99.90;;;;;;5027120;28;20251;-63
2021/06/30 08:54:08;;;;;;;10.13;9.13;;;20.90;99.90;;;;;;5024617;28;20297;-64
2021/06/30 08:56:40;;;;;;;10.33;9.00;;;21.00;99.90;;;;;;5024228;28;20686;-63
2021/06/30 08:59:09;;;;;;;11.20;9.43;;;21.10;99.90;;;;;;5024419;28;20609;-62
2021/06/30 09:01:37;;;;;;;10.83;8.43;;;21.30;99.90;;;;;;5030441;28;20239;-63
2021/06/30 09:04:07;;;;;;;9.20;7.93;;;21.50;99.90;;;;;;5024630;28;20239;-64
2021/06/30 09:06:35;;;;;;;8.30;7.50;;;21.50;99.90;;;;;;5039725;28;20486;-64
2021/06/30 09:09:10;;;;;;;9.87;7.73;;;21.50;99.90;;;;;;5044362;28;20248;-65
2021/06/30 09:11:40;;;;;;;8.03;7.20;;;21.50;99.90;;;;;;5043143;28;20712;-63
2021/06/30 09:14:22;;;;;;;7.87;7.07;;;21.40;99.90;;;;;;5044432;28;20603;-63
2021/06/30 09:17:21;;;;;;;7.93;7.10;;;21.40;99.90;;;;;;5026061;28;20258;-64
2021/06/30 09:19:55;;;;;;;8.13;7.33;;;21.40;99.90;;;;;;5024378;28;20247;-63
2021/06/30 09:22:25;;;;;;;9.57;8.23;;;21.40;99.90;;;;;;5043575;28;20498;-63
2021/06/30 09:24:55;;;;;;;8.43;7.53;;;21.40;99.90;;;;;;5042222;28;20243;-64
2021/06/30 09:27:40;;;;;;;8.20;7.40;;;21.40;99.90;;;;;;5024166;28;20346;-63
2021/06/30 09:30:11;;;;;;;12.00;8.30;;;21.40;99.90;;;;;;5026826;28;20863;-62
2021/06/30 09:32:58;;;;;;;10.07;8.67;;;21.30;99.90;;;;;;5043647;28;20251;-64
2021/06/30 09:35:29;;;;;;;13.53;9.33;;;21.10;99.90;;;;;;5043541;28;20249;-63
2021/06/30 09:38:29;;;;;;;12.40;11.00;;;21.00;99.90;;;;;;5043683;28;20239;-63
2021/06/30 09:40:58;;;;;;;14.90;11.00;;;20.90;99.90;;;;;;5031975;28;20341;-62
2021/06/30 09:43:33;;;;;;;13.07;11.53;;;20.80;99.90;;;;;;5025238;28;20234;-63
2021/06/30 09:46:16;;;;;;;15.40;11.57;;;20.80;99.90;;;;;;5027147;28;20851;-62
2021/06/30 09:48:44;;;;;;;18.73;12.90;;;20.70;99.90;;;;;;5024730;28;20705;-63
2021/06/30 09:51:18;;;;;;;18.10;12.20;;;20.60;99.90;;;;;;5026900;28;20244;-64
2021/06/30 09:53:47;;;;;;;16.77;13.37;;;20.40;99.90;;;;;;5015222;28;20346;-63
2021/06/30 09:56:32;;;;;;;20.17;13.43;;;20.40;99.90;;;;;;5015930;28;20618;-64
2021/06/30 09:59:22;;;;;;;16.40;12.50;;;20.40;99.90;;;;;;5014226;28;20703;-63
2021/06/30 10:01:57;;;;;;;16.30;13.20;;;20.40;99.90;;;;;;5015334;28;20270;-64
2021/06/30 10:04:30;;;;;;;16.60;14.83;;;20.40;99.90;;;;;;5017409;28;20247;-65
2021/06/30 10:07:01;;;;;;;19.47;14.03;;;20.50;99.90;;;;;;5022303;28;20742;-64
2021/06/30 10:09:30;;;;;;;23.07;15.53;;;20.60;99.90;;;;;;5013846;28;20243;-63
2021/06/30 10:12:07;;;;;;;21.97;14.87;;;20.60;99.90;;;;;;5022179;28;20333;-65
2021/06/30 10:14:38;;;;;;;23.30;13.90;;;20.80;99.90;;;;;;5019986;28;20394;-64
2021/06/30 10:17:08;;;;;;;21.10;15.07;;;21.20;99.90;;;;;;5027348;28;20250;-63
2021/06/30 10:19:37;;;;;;;21.27;15.50;;;21.60;99.90;;;;;;5019856;28;20489;-65
2021/06/30 10:22:12;;;;;;;24.30;18.03;;;21.90;99.90;;;;;;5027327;28;20243;-64
2021/06/30 10:24:41;;;;;;;20.43;16.20;;;22.00;99.90;;;;;;5031937;28;20729;-63
2021/06/30 10:27:15;;;;;;;17.73;14.60;;;22.00;99.90;;;;;;5013245;28;20321;-63
2021/06/30 10:29:51;;;;;;;18.20;15.87;;;22.10;99.90;;;;;;5010963;28;20337;-65
2021/06/30 10:32:22;;;;;;;19.30;17.30;;;22.10;99.90;;;;;;5047486;28;20265;-63
2021/06/30 10:34:53;;;;;;;18.43;16.53;;;22.00;99.90;;;;;;5030810;28;20419;-65
2021/06/30 10:37:24;;;;;;;20.03;16.63;;;22.10;99.90;;;;;;5013192;28;20274;-63
2021/06/30 10:39:54;;;;;;;19.90;17.30;;;22.10;99.90;;;;;;5021152;28;20334;-64
2021/06/30 10:42:31;;;;;;;18.10;16.17;;;22.10;99.90;;;;;;5012778;28;20247;-64
2021/06/30 10:45:03;;;;;;;18.13;16.33;;;22.10;99.90;;;;;;5012082;28;20244;-65
2021/06/30 10:47:38;;;;;;;18.67;16.67;;;22.10;99.90;;;;;;5026234;28;20239;-64
2021/06/30 10:50:27;;;;;;;18.10;16.40;;;22.20;99.90;;;;;;5011425;28;20243;-64
2021/06/30 10:53:22;;;;;;;17.73;15.93;;;22.30;99.90;;;;;;5012321;28;20971;-64
2021/06/30 10:55:54;;;;;;;17.77;16.07;;;22.40;99.90;;;;;;5020251;28;20251;-63
2021/06/30 10:58:25;;;;;;;17.27;15.67;;;22.40;99.90;;;;;;5027361;28;20254;-64
2021/06/30 11:01:08;;;;;;;16.63;15.13;;;22.50;99.90;;;;;;5020651;28;20237;-65
2021/06/30 11:03:38;;;;;;;17.27;15.53;;;22.80;99.90;;;;;;5010717;28;20251;-66
2021/06/30 11:06:32;;;;;;;17.67;15.77;;;22.90;99.90;;;;;;5012255;28;21060;-65
2021/06/30 11:09:05;;;;;;;15.77;14.07;;;23.00;99.90;;;;;;5011200;28;20239;-64
2021/06/30 11:11:55;;;;;;;16.90;15.20;;;23.00;99.90;;;;;;5016752;28;20569;-63
2021/06/30 11:14:42;;;;;;;16.47;14.87;;;22.90;99.90;;;;;;5010976;28;20236;-63
2021/06/30 11:17:12;;;;;;;17.13;15.07;;;22.80;99.90;;;;;;5017935;28;20239;-63
2021/06/30 11:19:49;;;;;;;19.60;17.20;;;22.80;99.90;;;;;;5016311;28;20240;-65
2021/06/30 11:22:38;;;;;;;18.43;16.50;;;22.70;99.90;;;;;;5031119;28;20251;-65
2021/06/30 11:25:07;;;;;;;20.80;18.73;;;22.50;99.90;;;;;;5011815;28;20501;-64
2021/06/30 11:27:39;;;;;;;21.77;19.67;;;22.60;99.90;;;;;;5017896;28;20233;-64
2021/06/30 11:30:11;;;;;;;24.10;20.43;;;22.70;99.90;;;;;;5011662;28;20301;-65
2021/06/30 11:32:49;;;;;;;22.37;20.13;;;22.70;99.90;;;;;;5022848;28;20711;-63
2021/06/30 11:35:23;;;;;;;25.93;21.83;;;22.70;99.90;;;;;;5011304;28;20240;-65
2021/06/30 11:38:01;;;;;;;23.83;21.27;;;22.70;99.90;;;;;;5010703;28;20248;-62
2021/06/30 11:40:34;;;;;;;23.40;20.90;;;22.70;99.90;;;;;;5009339;28;20521;-65
2021/06/30 11:43:12;;;;;;;21.60;19.37;;;22.80;99.90;;;;;;5011090;28;20248;-64
2021/06/30 11:45:41;;;;;;;21.50;19.20;;;22.80;99.90;;;;;;5010729;28;20240;-65
2021/06/30 11:48:12;;;;;;;22.33;17.13;;;22.80;99.90;;;;;;5011463;28;20237;-65
2021/06/30 11:50:54;;;;;;;19.63;15.90;;;22.70;99.90;;;;;;5011513;28;20652;-64
2021/06/30 11:53:37;;;;;;;18.10;15.53;;;22.70;99.90;;;;;;5011443;28;20248;-63
2021/06/30 11:56:07;;;;;;;18.13;15.43;;;22.50;99.90;;;;;;5008722;28;20237;-64
2021/06/30 11:58:41;;;;;;;18.10;14.77;;;22.50;99.90;;;;;;5024983;28;20244;-65
2021/06/30 12:01:26;;;;;;;15.40;13.83;;;22.60;99.90;;;;;;5025563;28;20569;-65
2021/06/30 12:04:14;;;;;;;16.57;13.03;;;22.70;99.90;;;;;;5010235;28;20639;-63
2021/06/30 12:06:48;;;;;;;16.00;13.13;;;22.70;99.90;;;;;;5027121;28;20687;-63
2021/06/30 12:09:21;;;;;;;15.63;13.47;;;22.80;99.90;;;;;;5025716;28;20246;-64
2021/06/30 12:11:53;;;;;;;15.43;13.63;;;22.80;99.90;;;;;;5016005;28;20391;-64
2021/06/30 12:14:24;;;;;;;15.80;14.27;;;22.70;99.90;;;;;;5011772;28;20412;-63
2021/06/30 12:16:55;;;;;;;19.10;15.70;;;22.70;99.90;;;;;;5013117;28;20603;-64
2021/06/30 12:19:35;;;;;;;16.97;14.37;;;22.60;99.90;;;;;;5016197;28;20589;-65
2021/06/30 12:22:20;;;;;;;15.90;14.20;;;22.70;99.90;;;;;;5026903;28;20747;-63
2021/06/30 12:24:53;;;;;;;18.00;16.10;;;22.60;99.90;;;;;;5017156;28;20346;-64
2021/06/30 12:27:22;;;;;;;18.73;15.87;;;22.70;99.90;;;;;;5010110;28;20266;-62
2021/06/30 12:29:57;;;;;;;16.43;14.40;;;22.60;99.90;;;;;;5007960;28;20728;-64
2021/06/30 12:32:27;;;;;;;16.17;13.83;;;22.50;99.90;;;;;;5009533;28;20243;-65
2021/06/30 12:35:01;;;;;;;16.03;13.57;;;22.50;99.90;;;;;;5012908;28;20244;-64
2021/06/30 12:37:30;;;;;;;16.03;13.47;;;22.40;99.90;;;;;;5028966;28;20679;-64
2021/06/30 12:40:00;;;;;;;13.50;12.10;;;22.20;99.90;;;;;;5012324;28;20251;-65
2021/06/30 12:42:48;;;;;;;14.27;12.77;;;22.20;99.90;;;;;;5017381;28;20264;-65
2021/06/30 12:45:18;;;;;;;12.93;11.67;;;22.20;99.90;;;;;;5010174;28;20248;-63
2021/06/30 12:47:55;;;;;;;12.37;11.07;;;22.20;99.90;;;;;;5020707;28;20343;-65
2021/06/30 12:50:30;;;;;;;13.83;12.27;;;22.30;99.90;;;;;;5003150;28;20331;-64
2021/06/30 12:53:05;;;;;;;14.43;11.23;;;22.20;99.90;;;;;;5017033;28;20232;-64
2021/06/30 12:55:49;;;;;;;14.27;10.63;;;22.20;99.90;;;;;;5015603;28;20536;-63
2021/06/30 12:58:18;;;;;;;10.90;9.80;;;22.20;99.90;;;;;;5006255;28;20262;-65
2021/06/30 13:00:56;;;;;;;12.10;9.87;;;22.30;99.90;;;;;;5016986;28;20748;-63